createdAt,value
2019-03-26T00:00:13.857Z,0.00
2019-03-26T00:01:14.356Z,0.00
2019-03-26T00:02:35.355Z,0.00
2019-03-26T00:03:14.359Z,0.00
2019-03-26T00:04:18.356Z,0.00
2019-03-26T00:05:35.856Z,0.00
2019-03-26T00:06:35.855Z,0.00
2019-03-26T00:07:14.856Z,0.00
2019-03-26T00:08:14.855Z,0.00
2019-03-26T00:09:15.355Z,0.00
2019-03-26T00:10:18.355Z,0.00
2019-03-26T00:11:15.357Z,0.00
2019-03-26T00:12:15.353Z,0.00
2019-03-26T00:13:15.856Z,0.00
2019-03-26T00:14:15.861Z,0.00
2019-03-26T00:15:19.868Z,0.00
2019-03-26T00:16:36.878Z,0.00
2019-03-26T00:17:17.810Z,0.00
2019-03-26T00:18:37.356Z,0.00
2019-03-26T00:19:16.351Z,0.00
2019-03-26T00:20:16.367Z,0.00
2019-03-26T00:21:19.857Z,0.00
2019-03-26T00:22:16.855Z,0.00
2019-03-26T00:23:37.856Z,0.00
2019-03-26T00:24:26.288Z,0.00
2019-03-26T00:25:16.861Z,0.00
2019-03-26T00:26:20.864Z,0.00
2019-03-26T00:27:17.354Z,0.00
2019-03-26T00:28:17.359Z,0.00
2019-03-26T00:29:17.356Z,0.00
2019-03-26T00:30:17.356Z,0.00
2019-03-26T00:31:17.853Z,0.00
2019-03-26T00:32:42.858Z,0.00
2019-03-26T00:33:17.854Z,0.00
2019-03-26T00:34:19.579Z,0.00
2019-03-26T00:35:18.353Z,0.00
2019-03-26T00:36:19.792Z,0.00
2019-03-26T00:37:18.354Z,0.00
2019-03-26T00:38:21.853Z,0.00
2019-03-26T00:39:18.355Z,0.00
2019-03-26T00:41:50.089Z,0.00
2019-03-26T00:42:50.098Z,0.00
2019-03-26T00:45:24.828Z,0.00
2019-03-26T00:46:24.832Z,0.00
2019-03-26T00:47:24.817Z,0.00
2019-03-26T00:48:46.347Z,0.00
2019-03-26T00:49:28.825Z,0.00
2019-03-26T00:50:25.333Z,0.00
2019-03-26T00:51:25.328Z,0.00
2019-03-26T00:52:48.826Z,0.00
2019-03-26T00:53:46.824Z,0.00
2019-03-26T00:54:25.825Z,0.00
2019-03-26T00:55:28.825Z,0.00
2019-03-26T00:56:26.326Z,0.00
2019-03-26T00:57:26.324Z,0.00
2019-03-26T00:58:26.327Z,0.00
2019-03-26T00:59:26.329Z,0.00
2019-03-26T01:00:30.323Z,0.00
2019-03-26T01:01:26.824Z,0.00
2019-03-26T01:02:26.825Z,0.00
2019-03-26T01:03:26.824Z,0.00
2019-03-26T01:04:32.972Z,0.00
2019-03-26T01:05:31.322Z,0.00
2019-03-26T01:06:28.282Z,0.00
2019-03-26T01:07:27.324Z,0.00
2019-03-26T01:08:48.327Z,0.00
2019-03-26T01:09:27.841Z,0.00
2019-03-26T01:10:27.830Z,0.00
2019-03-26T01:11:31.333Z,0.00
2019-03-26T01:12:31.047Z,0.00
2019-03-26T01:13:28.323Z,0.00
2019-03-26T01:14:28.323Z,0.00
2019-03-26T01:15:28.321Z,0.00
2019-03-26T01:16:53.323Z,0.00
2019-03-26T01:17:28.831Z,0.00
2019-03-26T01:18:28.825Z,0.00
2019-03-26T01:19:28.823Z,0.00
2019-03-26T01:20:28.865Z,0.00
2019-03-26T01:21:29.323Z,0.00
2019-03-26T01:22:53.323Z,0.00
2019-03-26T01:23:29.323Z,0.00
2019-03-26T01:24:29.323Z,0.00
2019-03-26T01:25:29.323Z,0.00
2019-03-26T01:26:29.834Z,0.00
2019-03-26T01:27:34.779Z,0.00
2019-03-26T01:28:29.823Z,0.00
2019-03-26T01:29:29.822Z,0.00
2019-03-26T01:30:29.822Z,0.00
2019-03-26T01:31:30.324Z,0.00
2019-03-26T01:32:34.822Z,0.00
2019-03-26T01:33:30.322Z,0.00
2019-03-26T01:34:30.321Z,0.00
2019-03-26T01:35:30.822Z,0.00
2019-03-26T01:36:30.820Z,0.00
2019-03-26T01:37:55.323Z,0.00
2019-03-26T01:38:30.821Z,0.00
2019-03-26T01:39:31.322Z,0.00
2019-03-26T01:40:31.323Z,0.00
2019-03-26T01:41:31.328Z,0.00
2019-03-26T01:42:31.324Z,0.00
2019-03-26T01:43:35.757Z,0.00
2019-03-26T01:44:31.824Z,0.00
2019-03-26T01:45:31.822Z,0.00
2019-03-26T01:46:31.821Z,0.00
2019-03-26T01:47:34.255Z,0.00
2019-03-26T01:48:56.824Z,0.00
2019-03-26T01:49:32.320Z,0.00
2019-03-26T01:50:32.321Z,0.00
2019-03-26T01:51:42.255Z,0.00
2019-03-26T01:52:59.821Z,0.00
2019-03-26T01:53:57.324Z,0.00
2019-03-26T01:56:04.684Z,0.00
2019-03-26T01:57:25.697Z,0.00
2019-03-26T01:58:04.693Z,0.00
2019-03-26T01:59:30.690Z,0.00
2019-03-26T02:00:05.192Z,0.00
2019-03-26T02:01:05.195Z,0.00
2019-03-26T02:02:05.195Z,0.00
2019-03-26T02:03:05.195Z,0.00
2019-03-26T02:04:30.202Z,0.00
2019-03-26T02:05:05.696Z,0.00
2019-03-26T02:06:05.701Z,0.00
2019-03-26T02:07:05.695Z,0.00
2019-03-26T02:08:06.197Z,0.00
2019-03-26T02:09:06.198Z,0.00
2019-03-26T02:10:10.192Z,0.00
2019-03-26T02:11:06.193Z,0.00
2019-03-26T02:13:37.926Z,0.00
2019-03-26T02:14:37.931Z,0.00
2019-03-26T02:16:02.434Z,0.00
2019-03-26T02:16:38.438Z,0.00
2019-03-26T02:17:38.431Z,0.00
2019-03-26T02:18:38.431Z,0.00
2019-03-26T02:19:38.431Z,0.00
2019-03-26T02:21:03.932Z,0.00
2019-03-26T02:21:38.931Z,0.00
2019-03-26T02:22:38.930Z,0.00
2019-03-26T02:23:38.937Z,0.00
2019-03-26T02:24:41.431Z,0.00
2019-03-26T02:25:39.440Z,0.00
2019-03-26T02:26:42.935Z,0.00
2019-03-26T02:27:39.445Z,0.00
2019-03-26T02:28:39.983Z,0.00
2019-03-26T02:30:00.932Z,0.00
2019-03-26T02:30:39.931Z,0.00
2019-03-26T02:31:46.865Z,0.00
2019-03-26T02:32:39.932Z,0.00
2019-03-26T02:33:40.432Z,0.00
2019-03-26T02:34:40.429Z,0.00
2019-03-26T02:35:40.433Z,0.00
2019-03-26T02:36:40.429Z,0.00
2019-03-26T02:37:44.866Z,0.00
2019-03-26T02:38:40.930Z,0.00
2019-03-26T02:39:43.365Z,0.00
2019-03-26T02:40:40.930Z,0.00
2019-03-26T02:42:02.440Z,0.00
2019-03-26T02:42:43.928Z,0.00
2019-03-26T02:43:41.435Z,0.00
2019-03-26T02:44:41.430Z,0.00
2019-03-26T02:45:41.929Z,0.00
2019-03-26T02:46:41.930Z,0.00
2019-03-26T02:48:05.935Z,0.00
2019-03-26T02:48:41.929Z,0.00
2019-03-26T02:49:42.444Z,0.00
2019-03-26T02:50:42.459Z,0.00
2019-03-26T02:51:42.429Z,0.00
2019-03-26T02:52:46.434Z,0.00
2019-03-26T02:53:42.929Z,0.00
2019-03-26T02:54:42.928Z,0.00
2019-03-26T02:55:42.932Z,0.00
2019-03-26T02:56:42.928Z,0.00
2019-03-26T02:57:43.428Z,0.00
2019-03-26T02:59:11.804Z,0.00
2019-03-26T02:59:43.431Z,0.00
2019-03-26T03:01:04.430Z,0.00
2019-03-26T03:01:43.942Z,0.00
2019-03-26T03:02:43.928Z,0.00
2019-03-26T03:03:46.864Z,0.00
2019-03-26T03:04:49.433Z,0.00
2019-03-26T03:06:06.362Z,0.00
2019-03-26T03:06:44.429Z,0.00
2019-03-26T03:08:05.433Z,0.00
2019-03-26T03:08:44.428Z,0.00
2019-03-26T03:09:48.426Z,0.00
2019-03-26T03:11:05.928Z,0.00
2019-03-26T03:11:44.928Z,0.00
2019-03-26T03:12:44.927Z,0.00
2019-03-26T03:13:44.933Z,0.00
2019-03-26T03:14:45.426Z,0.00
2019-03-26T03:15:48.540Z,0.00
2019-03-26T03:16:45.487Z,0.00
2019-03-26T03:17:45.427Z,0.00
2019-03-26T03:18:45.434Z,0.00
2019-03-26T03:19:45.926Z,0.00
2019-03-26T03:20:49.427Z,0.00
2019-03-26T03:21:45.936Z,0.00
2019-03-26T03:22:45.431Z,0.00
2019-03-26T03:23:46.434Z,0.00
2019-03-26T03:24:46.427Z,0.00
2019-03-26T03:25:46.426Z,0.00
2019-03-26T03:26:50.426Z,0.00
2019-03-26T03:27:46.016Z,0.00
2019-03-26T03:28:46.925Z,0.00
2019-03-26T03:30:07.937Z,0.00
2019-03-26T03:30:46.926Z,0.00
2019-03-26T03:31:51.947Z,0.00
2019-03-26T03:32:47.426Z,0.00
2019-03-26T03:33:47.424Z,0.00
2019-03-26T03:34:47.431Z,0.00
2019-03-26T03:35:52.438Z,0.00
2019-03-26T03:37:12.432Z,0.00
2019-03-26T03:37:47.926Z,0.00
2019-03-26T03:38:47.934Z,0.00
2019-03-26T03:39:48.429Z,0.00
2019-03-26T03:40:48.424Z,0.00
2019-03-26T03:41:48.426Z,0.00
2019-03-26T03:42:51.926Z,0.00
2019-03-26T03:43:48.942Z,0.00
2019-03-26T03:44:48.926Z,0.00
2019-03-26T03:45:49.901Z,0.00
2019-03-26T03:46:48.922Z,0.00
2019-03-26T03:47:52.928Z,0.00
2019-03-26T03:48:49.423Z,0.00
2019-03-26T03:49:49.424Z,0.00
2019-03-26T03:50:49.426Z,0.00
2019-03-26T03:51:49.927Z,0.00
2019-03-26T03:52:49.940Z,0.00
2019-03-26T03:53:52.921Z,0.00
2019-03-26T03:54:49.935Z,0.00
2019-03-26T03:55:50.424Z,0.00
2019-03-26T03:56:50.425Z,0.00
2019-03-26T03:57:52.872Z,0.00
2019-03-26T03:58:54.451Z,0.00
2019-03-26T03:59:50.922Z,0.00
2019-03-26T04:00:50.925Z,0.00
2019-03-26T04:01:50.933Z,0.00
2019-03-26T04:02:50.930Z,0.00
2019-03-26T04:03:51.552Z,0.00
2019-03-26T04:05:16.473Z,0.00
2019-03-26T04:06:07.765Z,0.00
2019-03-26T04:06:51.423Z,0.00
2019-03-26T04:07:51.422Z,0.00
2019-03-26T04:08:51.921Z,0.00
2019-03-26T04:09:54.357Z,0.00
2019-03-26T04:10:54.923Z,0.00
2019-03-26T04:11:51.937Z,0.00
2019-03-26T04:12:52.426Z,0.00
2019-03-26T04:13:54.429Z,0.00
2019-03-26T04:14:52.428Z,0.00
2019-03-26T04:17:48.801Z,0.00
2019-03-26T04:18:48.749Z,0.00
2019-03-26T04:19:48.750Z,0.00
2019-03-26T04:20:51.250Z,0.00
2019-03-26T04:21:31.752Z,0.00
2019-03-26T04:22:49.251Z,0.00
2019-03-26T04:23:28.253Z,0.00
2019-03-26T04:24:49.751Z,0.00
2019-03-26T04:25:49.749Z,0.00
2019-03-26T04:26:32.250Z,0.00
2019-03-26T04:27:28.753Z,0.00
2019-03-26T04:28:29.257Z,0.00
2019-03-26T04:29:50.249Z,0.00
2019-03-26T04:30:29.255Z,0.00
2019-03-26T04:31:33.256Z,0.00
2019-03-26T04:32:29.750Z,0.00
2019-03-26T04:33:29.763Z,0.00
2019-03-26T04:34:29.748Z,0.00
2019-03-26T04:35:29.750Z,0.00
2019-03-26T04:36:30.249Z,0.00
2019-03-26T04:37:33.247Z,0.00
2019-03-26T04:38:30.249Z,0.00
2019-03-26T04:39:30.251Z,0.00
2019-03-26T04:40:30.756Z,0.00
2019-03-26T04:41:30.747Z,0.00
2019-03-26T04:42:34.255Z,0.00
2019-03-26T04:43:30.751Z,0.00
2019-03-26T04:44:31.244Z,0.00
2019-03-26T04:45:31.246Z,0.00
2019-03-26T04:46:31.250Z,0.00
2019-03-26T04:47:31.294Z,0.00
2019-03-26T04:48:35.246Z,0.00
2019-03-26T04:49:31.747Z,4.00
2019-03-26T04:50:31.818Z,0.00
2019-03-26T04:51:31.748Z,0.00
2019-03-26T04:52:32.246Z,4.00
2019-03-26T04:53:34.197Z,4.00
2019-03-26T04:54:35.247Z,4.00
2019-03-26T04:55:32.249Z,0.00
2019-03-26T04:56:32.747Z,4.00
2019-03-26T04:59:25.100Z,8.00
2019-03-26T05:00:07.116Z,12.00
2019-03-26T05:01:04.108Z,12.00
2019-03-26T05:02:04.611Z,12.00
2019-03-26T05:03:04.609Z,12.00
2019-03-26T05:04:04.613Z,16.00
2019-03-26T05:05:08.107Z,12.00
2019-03-26T05:06:05.108Z,16.00
2019-03-26T05:07:26.109Z,16.00
2019-03-26T05:08:05.108Z,16.00
2019-03-26T05:09:05.107Z,24.00
2019-03-26T05:11:40.793Z,32.00
2019-03-26T05:12:40.793Z,36.00
2019-03-26T05:13:40.798Z,36.00
2019-03-26T05:14:41.296Z,36.00
2019-03-26T05:15:44.792Z,44.00
2019-03-26T05:16:41.293Z,44.00
2019-03-26T05:17:42.746Z,40.00
2019-03-26T05:18:41.794Z,40.00
2019-03-26T05:21:16.655Z,48.00
2019-03-26T05:22:23.593Z,52.00
2019-03-26T05:23:13.157Z,52.00
2019-03-26T05:24:13.664Z,48.00
2019-03-26T05:25:13.656Z,52.00
2019-03-26T05:26:38.663Z,52.00
2019-03-26T05:27:13.656Z,56.00
2019-03-26T05:28:14.157Z,64.00
2019-03-26T05:29:14.157Z,64.00
2019-03-26T05:30:14.158Z,72.00
2019-03-26T05:31:14.160Z,76.00
2019-03-26T05:32:38.656Z,80.00
2019-03-26T05:33:14.658Z,80.00
2019-03-26T05:34:14.658Z,84.00
2019-03-26T05:35:14.664Z,92.00
2019-03-26T05:36:36.156Z,96.00
2019-03-26T05:38:50.333Z,136.00
2019-03-26T05:39:50.341Z,140.00
2019-03-26T05:40:50.340Z,148.00
2019-03-26T05:41:52.853Z,152.00
2019-03-26T05:42:54.842Z,152.00
2019-03-26T05:43:50.840Z,176.00
2019-03-26T05:44:50.840Z,196.00
2019-03-26T05:45:51.336Z,184.00
2019-03-26T05:46:51.340Z,200.00
2019-03-26T05:47:51.345Z,216.00
2019-03-26T05:48:55.848Z,212.00
2019-03-26T05:49:51.837Z,220.00
2019-03-26T05:50:51.843Z,236.00
2019-03-26T05:51:51.848Z,240.00
2019-03-26T05:52:51.841Z,248.00
2019-03-26T05:53:52.339Z,248.00
2019-03-26T05:54:55.339Z,280.00
2019-03-26T05:55:52.342Z,312.00
2019-03-26T05:56:52.375Z,328.00
2019-03-26T05:57:52.839Z,304.00
2019-03-26T05:58:52.839Z,300.00
2019-03-26T05:59:56.847Z,308.00
2019-03-26T06:00:52.868Z,344.00
2019-03-26T06:01:53.341Z,392.00
2019-03-26T06:02:53.338Z,408.00
2019-03-26T06:03:54.273Z,416.00
2019-03-26T06:04:53.340Z,440.00
2019-03-26T06:05:56.838Z,428.00
2019-03-26T06:07:14.838Z,452.00
2019-03-26T06:07:53.844Z,480.00
2019-03-26T06:08:53.838Z,488.00
2019-03-26T06:09:54.338Z,500.00
2019-03-26T06:10:57.839Z,532.00
2019-03-26T06:11:54.345Z,536.00
2019-03-26T06:12:54.337Z,528.00
2019-03-26T06:13:54.837Z,508.00
2019-03-26T06:16:38.207Z,516.00
2019-03-26T06:17:26.203Z,572.00
2019-03-26T06:18:26.204Z,648.00
2019-03-26T06:19:28.159Z,672.00
2019-03-26T06:20:26.701Z,660.00
2019-03-26T06:21:30.710Z,652.00
2019-03-26T06:22:26.749Z,648.00
2019-03-26T06:23:26.703Z,612.00
2019-03-26T06:24:28.670Z,588.00
2019-03-26T06:25:28.215Z,600.00
2019-03-26T06:26:27.200Z,648.00
2019-03-26T06:27:33.646Z,700.00
2019-03-26T06:28:27.200Z,720.00
2019-03-26T06:29:27.202Z,724.00
2019-03-26T06:31:58.931Z,760.00
2019-03-26T06:33:02.441Z,732.00
2019-03-26T06:33:58.944Z,752.00
2019-03-26T06:34:59.439Z,784.00
2019-03-26T06:35:59.438Z,784.00
2019-03-26T06:36:59.439Z,704.00
2019-03-26T06:38:03.440Z,640.00
2019-03-26T06:38:59.939Z,668.00
2019-03-26T06:39:59.939Z,720.00
2019-03-26T06:40:59.943Z,732.00
2019-03-26T06:41:59.940Z,692.00
2019-03-26T06:43:00.448Z,632.00
2019-03-26T06:44:04.442Z,656.00
2019-03-26T06:45:00.439Z,672.00
2019-03-26T06:46:00.438Z,684.00
2019-03-26T06:48:31.447Z,684.00
2019-03-26T06:49:36.183Z,624.00
2019-03-26T06:50:32.174Z,616.00
2019-03-26T06:51:32.675Z,632.00
2019-03-26T06:52:32.674Z,672.00
2019-03-26T06:53:32.675Z,648.00
2019-03-26T06:54:38.173Z,640.00
2019-03-26T06:55:33.174Z,680.00
2019-03-26T06:56:33.173Z,724.00
2019-03-26T06:57:35.861Z,776.00
2019-03-26T06:58:33.184Z,820.00
2019-03-26T06:59:37.175Z,896.00
2019-03-26T07:00:33.673Z,976.00
2019-03-26T07:01:33.673Z,996.00
2019-03-26T07:02:33.673Z,1016.00
2019-03-26T07:03:34.175Z,1212.00
2019-03-26T07:04:34.180Z,1316.00
2019-03-26T07:05:38.177Z,1368.00
2019-03-26T07:06:34.171Z,1404.00
2019-03-26T07:07:55.673Z,1432.00
2019-03-26T07:08:34.679Z,1560.00
2019-03-26T07:09:34.674Z,1752.00
2019-03-26T07:10:34.672Z,1876.00
2019-03-26T07:11:38.173Z,1852.00
2019-03-26T07:12:35.173Z,1784.00
2019-03-26T07:13:35.171Z,1712.00
2019-03-26T07:14:35.173Z,1764.00
2019-03-26T07:15:36.611Z,1732.00
2019-03-26T07:16:39.177Z,1668.00
2019-03-26T07:17:35.674Z,1620.00
2019-03-26T07:18:35.675Z,1640.00
2019-03-26T07:19:59.171Z,1552.00
2019-03-26T07:20:37.106Z,1424.00
2019-03-26T07:21:48.926Z,1472.00
2019-03-26T07:22:40.672Z,1532.00
2019-03-26T07:25:21.906Z,1812.00
2019-03-26T07:26:07.916Z,1828.00
2019-03-26T07:27:07.913Z,1960.00
2019-03-26T07:28:11.913Z,2140.00
2019-03-26T07:29:29.413Z,2148.00
2019-03-26T07:30:09.382Z,2144.00
2019-03-26T07:31:08.430Z,2156.00
2019-03-26T07:32:10.421Z,2172.00
2019-03-26T07:33:12.410Z,2268.00
2019-03-26T07:34:08.911Z,2248.00
2019-03-26T07:35:08.914Z,2072.00
2019-03-26T07:36:08.912Z,2036.00
2019-03-26T07:37:09.412Z,2080.00
2019-03-26T07:38:14.354Z,2100.00
2019-03-26T07:39:09.412Z,2104.00
2019-03-26T07:40:10.356Z,1984.00
2019-03-26T07:41:09.466Z,1916.00
2019-03-26T07:42:09.412Z,1976.00
2019-03-26T07:43:09.916Z,1988.00
2019-03-26T07:44:13.411Z,2056.00
2019-03-26T07:45:09.912Z,1908.00
2019-03-26T07:46:09.912Z,1932.00
2019-03-26T07:47:10.419Z,2092.00
2019-03-26T07:48:10.412Z,2184.00
2019-03-26T07:49:14.417Z,2120.00
2019-03-26T07:50:10.410Z,2140.00
2019-03-26T07:52:42.153Z,2472.00
2019-03-26T07:53:42.151Z,2700.00
2019-03-26T07:55:10.586Z,3064.00
2019-03-26T07:55:44.031Z,3056.00
2019-03-26T07:56:42.657Z,3052.00
2019-03-26T07:57:42.651Z,3028.00
2019-03-26T07:58:42.720Z,3196.00
2019-03-26T07:59:46.159Z,3556.00
2019-03-26T08:00:43.155Z,3888.00
2019-03-26T08:01:43.151Z,3856.00
2019-03-26T08:02:43.209Z,3844.00
2019-03-26T08:03:43.713Z,4108.00
2019-03-26T08:05:07.648Z,4128.00
2019-03-26T08:05:43.651Z,3944.00
2019-03-26T08:06:43.651Z,3876.00
2019-03-26T08:07:43.654Z,3812.00
2019-03-26T08:08:44.156Z,3792.00
2019-03-26T08:09:44.150Z,3668.00
2019-03-26T08:10:47.152Z,3616.00
2019-03-26T08:11:44.155Z,3748.00
2019-03-26T08:12:44.696Z,3612.00
2019-03-26T08:13:44.651Z,3720.00
2019-03-26T08:14:44.673Z,3888.00
2019-03-26T08:15:48.684Z,3788.00
2019-03-26T08:16:45.150Z,3488.00
2019-03-26T08:17:45.491Z,3508.00
2019-03-26T08:18:45.150Z,3964.00
2019-03-26T08:19:45.202Z,4096.00
2019-03-26T08:20:45.654Z,3968.00
2019-03-26T08:21:48.654Z,3624.00
2019-03-26T08:22:45.652Z,3428.00
2019-03-26T08:23:45.658Z,3620.00
2019-03-26T08:24:45.650Z,3544.00
2019-03-26T08:27:21.384Z,4040.00
2019-03-26T08:28:17.390Z,4352.00
2019-03-26T08:29:17.395Z,4516.00
2019-03-26T08:30:38.894Z,4856.00
2019-03-26T08:31:38.894Z,4772.00
2019-03-26T08:32:42.392Z,4260.00
2019-03-26T08:33:17.890Z,3844.00
2019-03-26T08:34:20.386Z,3604.00
2019-03-26T08:35:18.390Z,3484.00
2019-03-26T08:36:18.390Z,3488.00
2019-03-26T08:37:18.394Z,3200.00
2019-03-26T08:38:22.390Z,3056.00
2019-03-26T08:39:39.890Z,2932.00
2019-03-26T08:40:18.894Z,2820.00
2019-03-26T08:41:18.894Z,2732.00
2019-03-26T08:42:19.390Z,2684.00
2019-03-26T08:43:49.897Z,2600.00
2019-03-26T08:44:19.390Z,2404.00
2019-03-26T08:45:19.398Z,2248.00
2019-03-26T08:47:51.130Z,2056.00
2019-03-26T08:48:54.137Z,1988.00
2019-03-26T08:49:51.636Z,1924.00
2019-03-26T08:50:51.641Z,1916.00
2019-03-26T08:51:51.634Z,1888.00
2019-03-26T08:52:51.646Z,1876.00
2019-03-26T08:54:16.194Z,2004.00
2019-03-26T08:54:53.570Z,2040.00
2019-03-26T08:55:52.135Z,2060.00
2019-03-26T08:56:52.142Z,2152.00
2019-03-26T08:57:52.136Z,2336.00
2019-03-26T08:59:18.579Z,2528.00
2019-03-26T08:59:52.639Z,2660.00
2019-03-26T09:00:52.636Z,2748.00
2019-03-26T09:01:52.631Z,2788.00
2019-03-26T09:02:52.635Z,2756.00
2019-03-26T09:04:19.114Z,2680.00
2019-03-26T09:04:52.329Z,2708.00
2019-03-26T09:05:54.111Z,2736.00
2019-03-26T09:06:53.136Z,2556.00
2019-03-26T09:08:24.886Z,2380.00
2019-03-26T09:08:53.636Z,2240.00
2019-03-26T09:11:28.962Z,2272.00
2019-03-26T09:14:00.943Z,2212.00
2019-03-26T09:15:04.951Z,2168.00
2019-03-26T09:16:01.450Z,2228.00
2019-03-26T09:17:22.451Z,2392.00
2019-03-26T09:18:01.451Z,2636.00
2019-03-26T09:19:22.448Z,2740.00
2019-03-26T09:20:01.952Z,2688.00
2019-03-26T09:21:26.962Z,2636.00
2019-03-26T09:22:01.951Z,2744.00
2019-03-26T09:23:01.962Z,2836.00
2019-03-26T09:24:02.451Z,2712.00
2019-03-26T09:25:02.450Z,2640.00
2019-03-26T09:26:02.453Z,2556.00
2019-03-26T09:27:26.950Z,2504.00
2019-03-26T09:28:04.955Z,2476.00
2019-03-26T09:29:02.954Z,2296.00
2019-03-26T09:30:02.950Z,2160.00
2019-03-26T09:31:02.949Z,2080.00
2019-03-26T09:32:06.950Z,2160.00
2019-03-26T09:34:37.252Z,2216.00
2019-03-26T09:35:34.818Z,2436.00
2019-03-26T09:36:34.822Z,2644.00
2019-03-26T09:37:38.316Z,2848.00
2019-03-26T09:38:56.316Z,3196.00
2019-03-26T09:42:41.790Z,4096.00
2019-03-26T09:43:38.300Z,3980.00
2019-03-26T09:44:52.301Z,3932.00
2019-03-26T09:45:38.809Z,3972.00
2019-03-26T09:46:38.801Z,3692.00
2019-03-26T09:47:42.799Z,3300.00
2019-03-26T09:48:38.799Z,3164.00
2019-03-26T09:49:39.307Z,3312.00
2019-03-26T09:50:39.299Z,3468.00
2019-03-26T09:51:39.298Z,3512.00
2019-03-26T09:52:39.298Z,3480.00
2019-03-26T09:53:42.799Z,3472.00
2019-03-26T09:54:39.794Z,3436.00
2019-03-26T09:55:39.801Z,3428.00
2019-03-26T09:56:39.809Z,3508.00
2019-03-26T09:57:40.310Z,3544.00
2019-03-26T09:58:43.798Z,3572.00
2019-03-26T09:59:40.310Z,3656.00
2019-03-26T10:00:40.437Z,3760.00
2019-03-26T10:01:40.803Z,3784.00
2019-03-26T10:02:43.129Z,3816.00
2019-03-26T10:05:36.573Z,3984.00
2019-03-26T10:06:23.263Z,3984.00
2019-03-26T10:07:21.358Z,3928.00
2019-03-26T10:09:51.265Z,3884.00
2019-03-26T10:11:08.272Z,3768.00
2019-03-26T10:11:47.270Z,3676.00
2019-03-26T10:12:50.703Z,4248.00
2019-03-26T10:15:22.651Z,5224.00
2019-03-26T10:16:40.155Z,6164.00
2019-03-26T10:17:19.652Z,9352.00
2019-03-26T10:18:19.652Z,10200.00
2019-03-26T10:19:19.657Z,8752.00
2019-03-26T10:20:19.652Z,8476.00
2019-03-26T10:21:23.661Z,6972.00
2019-03-26T10:22:20.294Z,7904.00
2019-03-26T10:23:20.201Z,7524.00
2019-03-26T10:24:20.152Z,8232.00
2019-03-26T10:26:55.383Z,7756.00
2019-03-26T10:28:12.900Z,9820.00
2019-03-26T10:28:51.929Z,9552.00
2019-03-26T10:29:52.394Z,10844.00
2019-03-26T10:32:26.242Z,14816.00
2019-03-26T10:33:23.761Z,13428.00
2019-03-26T10:34:23.762Z,12896.00
2019-03-26T10:35:24.260Z,12916.00
2019-03-26T10:36:24.262Z,12800.00
2019-03-26T10:37:49.260Z,13204.00
2019-03-26T10:38:24.261Z,14004.00
2019-03-26T10:39:24.760Z,14240.00
2019-03-26T10:40:24.761Z,13836.00
2019-03-26T10:41:24.768Z,15712.00
2019-03-26T10:42:24.760Z,14216.00
2019-03-26T10:43:51.231Z,14792.00
2019-03-26T10:44:25.265Z,14616.00
2019-03-26T10:45:25.270Z,12876.00
2019-03-26T10:46:25.260Z,12984.00
2019-03-26T10:47:46.763Z,13780.00
2019-03-26T10:48:25.766Z,13412.00
2019-03-26T10:51:00.526Z,11820.00
2019-03-26T10:52:00.551Z,9720.00
2019-03-26T10:53:00.533Z,9008.00
2019-03-26T10:55:36.271Z,10700.00
2019-03-26T10:56:32.757Z,8656.00
2019-03-26T10:57:32.292Z,7636.00
2019-03-26T10:58:32.780Z,5740.00
2019-03-26T10:59:31.989Z,5004.00
2019-03-26T11:00:32.786Z,4948.00
2019-03-26T11:01:36.275Z,4920.00
2019-03-26T11:02:54.278Z,5328.00
2019-03-26T11:03:39.278Z,5856.00
2019-03-26T11:04:34.712Z,6672.00
2019-03-26T11:05:33.275Z,7000.00
2019-03-26T11:06:37.277Z,6992.00
2019-03-26T11:07:33.777Z,6820.00
2019-03-26T11:08:54.778Z,7312.00
2019-03-26T11:09:33.776Z,7632.00
2019-03-26T11:10:34.307Z,6940.00
2019-03-26T11:11:34.277Z,6112.00
2019-03-26T11:12:38.278Z,6220.00
2019-03-26T11:13:33.746Z,7120.00
2019-03-26T11:14:34.777Z,8356.00
2019-03-26T11:15:35.713Z,9280.00
2019-03-26T11:16:34.777Z,10396.00
2019-03-26T11:17:34.777Z,11984.00
2019-03-26T11:18:59.278Z,14528.00
2019-03-26T11:19:35.276Z,15204.00
2019-03-26T11:20:35.283Z,12976.00
2019-03-26T11:21:35.277Z,12440.00
2019-03-26T11:24:11.015Z,14700.00
2019-03-26T11:25:28.022Z,15712.00
2019-03-26T11:26:06.535Z,16416.00
2019-03-26T11:29:00.226Z,14136.00
2019-03-26T11:29:41.839Z,18624.00
2019-03-26T11:30:38.735Z,19392.00
2019-03-26T11:31:38.736Z,16720.00
2019-03-26T11:33:00.233Z,17344.00
2019-03-26T11:34:00.238Z,17216.00
2019-03-26T11:34:39.238Z,17568.00
2019-03-26T11:37:13.914Z,14052.00
2019-03-26T11:38:13.920Z,11912.00
2019-03-26T11:39:13.925Z,10908.00
2019-03-26T11:40:14.420Z,10380.00
2019-03-26T11:41:22.355Z,7484.00
2019-03-26T11:42:14.420Z,4932.00
2019-03-26T11:43:14.420Z,4468.00
2019-03-26T11:44:14.924Z,5416.00
2019-03-26T11:45:14.937Z,6340.00
2019-03-26T11:46:16.920Z,6140.00
2019-03-26T11:49:14.561Z,7320.00
2019-03-26T11:50:11.629Z,8168.00
2019-03-26T11:50:51.127Z,9572.00
2019-03-26T11:51:51.138Z,10136.00
2019-03-26T11:52:54.627Z,9988.00
2019-03-26T11:53:51.127Z,7092.00
2019-03-26T11:56:22.867Z,4448.00
2019-03-26T11:57:22.873Z,4392.00
2019-03-26T11:58:30.794Z,4616.00
2019-03-26T11:59:25.371Z,4956.00
2019-03-26T12:00:23.399Z,5312.00
2019-03-26T12:01:44.372Z,6600.00
2019-03-26T12:02:23.401Z,7500.00
2019-03-26T12:03:27.382Z,8004.00
2019-03-26T12:04:23.883Z,7860.00
2019-03-26T12:05:23.872Z,8432.00
2019-03-26T12:06:23.871Z,9344.00
2019-03-26T12:07:24.371Z,9320.00
2019-03-26T12:08:24.373Z,8496.00
2019-03-26T12:09:27.372Z,7696.00
2019-03-26T12:10:24.381Z,8360.00
2019-03-26T12:11:45.872Z,6268.00
2019-03-26T12:12:24.871Z,6080.00
2019-03-26T12:13:24.873Z,7340.00
2019-03-26T12:14:49.872Z,8292.00
2019-03-26T12:15:25.371Z,9320.00
2019-03-26T12:16:25.379Z,11612.00
2019-03-26T12:17:25.389Z,11264.00
2019-03-26T12:18:25.373Z,17600.00
2019-03-26T12:19:25.878Z,44992.00
2019-03-26T12:20:29.873Z,56192.00
2019-03-26T12:21:46.871Z,10468.00
2019-03-26T12:22:25.871Z,6092.00
2019-03-26T12:23:26.380Z,4664.00
2019-03-26T12:24:26.371Z,3688.00
2019-03-26T12:25:26.373Z,2964.00
2019-03-26T12:28:02.557Z,2828.00
2019-03-26T12:29:03.055Z,3096.00
2019-03-26T12:30:01.634Z,3420.00
2019-03-26T12:32:57.871Z,3512.00
2019-03-26T12:33:33.376Z,3308.00
2019-03-26T12:34:33.376Z,3624.00
2019-03-26T12:35:33.876Z,4160.00
2019-03-26T12:36:39.908Z,4260.00
2019-03-26T12:37:37.887Z,3960.00
2019-03-26T12:38:33.876Z,4148.00
2019-03-26T12:39:59.642Z,4244.00
2019-03-26T12:40:34.383Z,4220.00
2019-03-26T12:41:38.287Z,3880.00
2019-03-26T12:42:33.842Z,3524.00
2019-03-26T12:43:37.884Z,3340.00
2019-03-26T12:44:34.878Z,3236.00
2019-03-26T12:45:35.811Z,3052.00
2019-03-26T12:46:34.880Z,2748.00
2019-03-26T12:47:55.885Z,2572.00
2019-03-26T12:48:38.885Z,2432.00
2019-03-26T12:49:35.375Z,2312.00
2019-03-26T12:50:36.319Z,2268.00
2019-03-26T12:51:35.383Z,2324.00
2019-03-26T12:52:35.375Z,2484.00
2019-03-26T12:54:00.387Z,2700.00
2019-03-26T12:54:35.875Z,2992.00
2019-03-26T12:55:35.877Z,3252.00
2019-03-26T12:56:35.877Z,3264.00
2019-03-26T12:57:36.380Z,3192.00
2019-03-26T12:58:36.622Z,3316.00
2019-03-26T13:00:15.374Z,3076.00
2019-03-26T13:00:38.376Z,2800.00
2019-03-26T13:01:36.880Z,2696.00
2019-03-26T13:04:29.236Z,2960.00
2019-03-26T13:05:11.743Z,3160.00
2019-03-26T13:06:08.257Z,3228.00
2019-03-26T13:07:28.822Z,3140.00
2019-03-26T13:08:29.745Z,3144.00
2019-03-26T13:12:28.839Z,3088.00
2019-03-26T13:13:35.849Z,3160.00
2019-03-26T13:14:14.846Z,3376.00
2019-03-26T13:15:36.419Z,3640.00
2019-03-26T13:16:17.847Z,3632.00
2019-03-26T13:17:15.346Z,3348.00
2019-03-26T13:18:15.344Z,3012.00
2019-03-26T13:19:36.849Z,2760.00
2019-03-26T13:20:15.846Z,2556.00
2019-03-26T13:21:19.351Z,2528.00
2019-03-26T13:22:15.846Z,2824.00
2019-03-26T13:23:16.348Z,3096.00
2019-03-26T13:24:16.346Z,3176.00
2019-03-26T13:25:16.345Z,3144.00
2019-03-26T13:26:20.357Z,3128.00
2019-03-26T13:27:16.849Z,3136.00
2019-03-26T13:28:27.286Z,3252.00
2019-03-26T13:29:18.310Z,3272.00
2019-03-26T13:30:37.852Z,3168.00
2019-03-26T13:31:41.894Z,3060.00
2019-03-26T13:35:21.148Z,2220.00
2019-03-26T13:36:21.150Z,2168.00
2019-03-26T13:37:24.651Z,2208.00
2019-03-26T13:38:21.150Z,2156.00